sensor_id;sensor_type;location;lat;lon;timestamp;P1;durP1;ratioP1;P2;durP2;ratioP2
19127;SDS011;9696;53.686;10.094;2023-08-31T00:00:33;12.20;;;8.97;;
19127;SDS011;9696;53.686;10.094;2023-08-31T00:03:03;13.83;;;9.17;;
19127;SDS011;9696;53.686;10.094;2023-08-31T00:05:36;15.87;;;9.37;;
19127;SDS011;9696;53.686;10.094;2023-08-31T00:08:07;12.07;;;8.67;;
19127;SDS011;9696;53.686;10.094;2023-08-31T00:10:39;14.40;;;9.97;;
19127;SDS011;9696;53.686;10.094;2023-08-31T00:13:08;16.37;;;9.33;;
19127;SDS011;9696;53.686;10.094;2023-08-31T00:15:39;15.00;;;9.33;;
19127;SDS011;9696;53.686;10.094;2023-08-31T00:18:08;12.43;;;8.80;;
19127;SDS011;9696;53.686;10.094;2023-08-31T00:20:39;14.33;;;8.47;;
19127;SDS011;9696;53.686;10.094;2023-08-31T00:23:08;13.43;;;8.53;;
19127;SDS011;9696;53.686;10.094;2023-08-31T00:25:39;15.07;;;8.33;;
19127;SDS011;9696;53.686;10.094;2023-08-31T00:28:10;14.63;;;8.50;;
19127;SDS011;9696;53.686;10.094;2023-08-31T00:30:42;12.07;;;8.47;;
19127;SDS011;9696;53.686;10.094;2023-08-31T00:33:13;12.17;;;8.47;;
19127;SDS011;9696;53.686;10.094;2023-08-31T00:35:42;12.47;;;7.60;;
19127;SDS011;9696;53.686;10.094;2023-08-31T00:38:13;12.67;;;7.47;;
19127;SDS011;9696;53.686;10.094;2023-08-31T00:40:43;12.77;;;7.73;;
19127;SDS011;9696;53.686;10.094;2023-08-31T00:43:13;10.63;;;7.27;;
19127;SDS011;9696;53.686;10.094;2023-08-31T00:45:44;11.47;;;7.23;;
19127;SDS011;9696;53.686;10.094;2023-08-31T00:48:16;13.47;;;7.60;;
19127;SDS011;9696;53.686;10.094;2023-08-31T00:50:46;14.63;;;7.60;;
19127;SDS011;9696;53.686;10.094;2023-08-31T00:53:16;13.60;;;7.87;;
19127;SDS011;9696;53.686;10.094;2023-08-31T00:55:47;14.17;;;8.33;;
19127;SDS011;9696;53.686;10.094;2023-08-31T00:58:16;13.97;;;8.40;;
19127;SDS011;9696;53.686;10.094;2023-08-31T01:00:47;10.73;;;7.50;;
19127;SDS011;9696;53.686;10.094;2023-08-31T01:03:27;13.87;;;7.90;;
19127;SDS011;9696;53.686;10.094;2023-08-31T01:06:09;11.13;;;7.73;;
19127;SDS011;9696;53.686;10.094;2023-08-31T01:08:48;12.07;;;8.30;;
19127;SDS011;9696;53.686;10.094;2023-08-31T01:11:28;12.17;;;8.07;;
19127;SDS011;9696;53.686;10.094;2023-08-31T01:14:02;12.23;;;8.03;;
19127;SDS011;9696;53.686;10.094;2023-08-31T01:16:39;12.40;;;8.10;;
19127;SDS011;9696;53.686;10.094;2023-08-31T01:19:13;17.20;;;8.73;;
19127;SDS011;9696;53.686;10.094;2023-08-31T01:21:55;10.00;;;7.17;;
19127;SDS011;9696;53.686;10.094;2023-08-31T01:24:33;12.40;;;6.97;;
19127;SDS011;9696;53.686;10.094;2023-08-31T01:27:03;10.30;;;6.97;;
19127;SDS011;9696;53.686;10.094;2023-08-31T01:29:33;9.57;;;6.47;;
19127;SDS011;9696;53.686;10.094;2023-08-31T01:32:04;9.87;;;6.53;;
19127;SDS011;9696;53.686;10.094;2023-08-31T01:34:36;11.43;;;6.83;;
19127;SDS011;9696;53.686;10.094;2023-08-31T01:37:08;10.93;;;6.33;;
19127;SDS011;9696;53.686;10.094;2023-08-31T01:39:48;11.40;;;6.10;;
19127;SDS011;9696;53.686;10.094;2023-08-31T01:42:24;10.40;;;6.90;;
19127;SDS011;9696;53.686;10.094;2023-08-31T01:44:55;7.57;;;5.77;;
19127;SDS011;9696;53.686;10.094;2023-08-31T01:47:26;11.97;;;6.63;;
19127;SDS011;9696;53.686;10.094;2023-08-31T01:49:56;10.27;;;6.07;;
19127;SDS011;9696;53.686;10.094;2023-08-31T01:52:26;8.23;;;6.03;;
19127;SDS011;9696;53.686;10.094;2023-08-31T01:54:56;9.00;;;6.03;;
19127;SDS011;9696;53.686;10.094;2023-08-31T01:57:26;10.20;;;6.30;;
19127;SDS011;9696;53.686;10.094;2023-08-31T02:00:08;9.83;;;5.67;;
19127;SDS011;9696;53.686;10.094;2023-08-31T02:02:40;9.57;;;6.37;;
19127;SDS011;9696;53.686;10.094;2023-08-31T02:05:10;9.73;;;5.90;;
19127;SDS011;9696;53.686;10.094;2023-08-31T02:07:39;8.83;;;5.93;;
19127;SDS011;9696;53.686;10.094;2023-08-31T02:10:09;8.23;;;5.97;;
19127;SDS011;9696;53.686;10.094;2023-08-31T02:12:42;10.53;;;5.43;;
19127;SDS011;9696;53.686;10.094;2023-08-31T02:15:11;8.70;;;5.33;;
19127;SDS011;9696;53.686;10.094;2023-08-31T02:17:40;9.03;;;5.50;;
19127;SDS011;9696;53.686;10.094;2023-08-31T02:20:10;9.87;;;5.60;;
19127;SDS011;9696;53.686;10.094;2023-08-31T02:22:41;8.37;;;5.67;;
19127;SDS011;9696;53.686;10.094;2023-08-31T02:25:11;8.87;;;5.30;;
19127;SDS011;9696;53.686;10.094;2023-08-31T02:27:41;10.73;;;5.33;;
19127;SDS011;9696;53.686;10.094;2023-08-31T02:30:10;11.43;;;5.73;;
19127;SDS011;9696;53.686;10.094;2023-08-31T02:32:39;9.67;;;6.03;;
19127;SDS011;9696;53.686;10.094;2023-08-31T02:35:13;9.77;;;5.80;;
19127;SDS011;9696;53.686;10.094;2023-08-31T02:37:42;6.90;;;5.20;;
19127;SDS011;9696;53.686;10.094;2023-08-31T02:40:13;12.23;;;5.57;;
19127;SDS011;9696;53.686;10.094;2023-08-31T02:42:42;7.77;;;5.37;;
19127;SDS011;9696;53.686;10.094;2023-08-31T02:45:14;8.73;;;5.20;;
19127;SDS011;9696;53.686;10.094;2023-08-31T02:47:44;8.57;;;5.83;;
19127;SDS011;9696;53.686;10.094;2023-08-31T02:50:14;10.10;;;6.07;;
19127;SDS011;9696;53.686;10.094;2023-08-31T02:52:43;9.40;;;5.23;;
19127;SDS011;9696;53.686;10.094;2023-08-31T02:55:14;9.97;;;6.10;;
19127;SDS011;9696;53.686;10.094;2023-08-31T02:57:43;8.80;;;5.40;;
19127;SDS011;9696;53.686;10.094;2023-08-31T03:00:12;8.23;;;5.10;;
19127;SDS011;9696;53.686;10.094;2023-08-31T03:02:43;11.27;;;5.70;;
19127;SDS011;9696;53.686;10.094;2023-08-31T03:05:12;7.40;;;5.30;;
19127;SDS011;9696;53.686;10.094;2023-08-31T03:07:42;7.87;;;5.13;;
19127;SDS011;9696;53.686;10.094;2023-08-31T03:10:13;9.33;;;5.33;;
19127;SDS011;9696;53.686;10.094;2023-08-31T03:12:43;10.97;;;5.43;;
19127;SDS011;9696;53.686;10.094;2023-08-31T03:15:15;7.33;;;4.63;;
19127;SDS011;9696;53.686;10.094;2023-08-31T03:17:44;11.17;;;5.17;;
19127;SDS011;9696;53.686;10.094;2023-08-31T03:20:13;8.73;;;5.37;;
19127;SDS011;9696;53.686;10.094;2023-08-31T03:22:42;6.47;;;4.80;;
19127;SDS011;9696;53.686;10.094;2023-08-31T03:25:13;8.23;;;4.83;;
19127;SDS011;9696;53.686;10.094;2023-08-31T03:27:42;9.37;;;4.70;;
19127;SDS011;9696;53.686;10.094;2023-08-31T03:30:12;11.20;;;5.03;;
19127;SDS011;9696;53.686;10.094;2023-08-31T03:32:41;9.23;;;4.50;;
19127;SDS011;9696;53.686;10.094;2023-08-31T03:35:11;12.53;;;4.57;;
19127;SDS011;9696;53.686;10.094;2023-08-31T03:37:40;9.80;;;5.40;;
19127;SDS011;9696;53.686;10.094;2023-08-31T03:40:09;7.90;;;4.63;;
19127;SDS011;9696;53.686;10.094;2023-08-31T03:42:40;8.33;;;5.10;;
19127;SDS011;9696;53.686;10.094;2023-08-31T03:45:09;12.43;;;5.20;;
19127;SDS011;9696;53.686;10.094;2023-08-31T03:47:39;9.63;;;5.43;;
19127;SDS011;9696;53.686;10.094;2023-08-31T03:50:08;8.20;;;4.50;;
19127;SDS011;9696;53.686;10.094;2023-08-31T03:52:38;9.77;;;4.37;;
19127;SDS011;9696;53.686;10.094;2023-08-31T03:55:08;8.77;;;4.60;;
19127;SDS011;9696;53.686;10.094;2023-08-31T03:57:37;9.00;;;4.60;;
19127;SDS011;9696;53.686;10.094;2023-08-31T04:00:14;9.50;;;4.43;;
19127;SDS011;9696;53.686;10.094;2023-08-31T04:02:44;8.20;;;4.80;;
19127;SDS011;9696;53.686;10.094;2023-08-31T04:05:17;6.70;;;4.33;;
19127;SDS011;9696;53.686;10.094;2023-08-31T04:07:46;9.00;;;3.90;;
19127;SDS011;9696;53.686;10.094;2023-08-31T04:10:15;6.97;;;3.70;;
19127;SDS011;9696;53.686;10.094;2023-08-31T04:12:47;7.47;;;3.60;;
19127;SDS011;9696;53.686;10.094;2023-08-31T04:15:16;6.57;;;4.00;;
19127;SDS011;9696;53.686;10.094;2023-08-31T04:17:45;8.87;;;3.93;;
19127;SDS011;9696;53.686;10.094;2023-08-31T04:20:17;6.23;;;4.00;;
19127;SDS011;9696;53.686;10.094;2023-08-31T04:22:46;7.73;;;3.83;;
19127;SDS011;9696;53.686;10.094;2023-08-31T04:25:15;8.17;;;3.90;;
19127;SDS011;9696;53.686;10.094;2023-08-31T04:27:44;6.57;;;3.57;;
19127;SDS011;9696;53.686;10.094;2023-08-31T04:30:15;5.03;;;3.00;;
19127;SDS011;9696;53.686;10.094;2023-08-31T04:32:45;8.30;;;3.40;;
19127;SDS011;9696;53.686;10.094;2023-08-31T04:35:15;6.77;;;3.70;;
19127;SDS011;9696;53.686;10.094;2023-08-31T04:37:44;8.30;;;3.73;;
19127;SDS011;9696;53.686;10.094;2023-08-31T04:40:13;5.33;;;3.20;;
19127;SDS011;9696;53.686;10.094;2023-08-31T04:42:43;9.53;;;3.27;;
19127;SDS011;9696;53.686;10.094;2023-08-31T04:45:13;6.77;;;3.30;;
19127;SDS011;9696;53.686;10.094;2023-08-31T04:47:42;5.33;;;3.13;;
19127;SDS011;9696;53.686;10.094;2023-08-31T04:50:12;9.60;;;3.80;;
19127;SDS011;9696;53.686;10.094;2023-08-31T04:52:41;8.43;;;3.10;;
19127;SDS011;9696;53.686;10.094;2023-08-31T04:55:12;6.10;;;3.30;;
19127;SDS011;9696;53.686;10.094;2023-08-31T04:57:41;6.60;;;3.33;;
19127;SDS011;9696;53.686;10.094;2023-08-31T05:00:11;4.60;;;3.00;;
19127;SDS011;9696;53.686;10.094;2023-08-31T05:02:42;5.77;;;3.30;;
19127;SDS011;9696;53.686;10.094;2023-08-31T05:05:12;12.20;;;3.10;;
19127;SDS011;9696;53.686;10.094;2023-08-31T05:07:41;6.53;;;3.83;;
19127;SDS011;9696;53.686;10.094;2023-08-31T05:10:11;6.37;;;3.07;;
19127;SDS011;9696;53.686;10.094;2023-08-31T05:12:40;6.67;;;2.80;;
19127;SDS011;9696;53.686;10.094;2023-08-31T05:15:09;7.50;;;3.43;;
19127;SDS011;9696;53.686;10.094;2023-08-31T05:17:40;4.83;;;3.20;;
19127;SDS011;9696;53.686;10.094;2023-08-31T05:20:09;6.33;;;3.00;;
19127;SDS011;9696;53.686;10.094;2023-08-31T05:22:39;12.77;;;5.23;;
19127;SDS011;9696;53.686;10.094;2023-08-31T05:25:08;8.73;;;3.67;;
19127;SDS011;9696;53.686;10.094;2023-08-31T05:27:38;7.17;;;3.50;;
19127;SDS011;9696;53.686;10.094;2023-08-31T05:30:07;6.87;;;4.03;;
19127;SDS011;9696;53.686;10.094;2023-08-31T05:32:36;8.27;;;4.60;;
19127;SDS011;9696;53.686;10.094;2023-08-31T05:35:07;10.00;;;3.90;;
19127;SDS011;9696;53.686;10.094;2023-08-31T05:37:36;7.93;;;4.17;;
19127;SDS011;9696;53.686;10.094;2023-08-31T05:40:06;5.63;;;3.80;;
19127;SDS011;9696;53.686;10.094;2023-08-31T05:42:37;14.07;;;4.17;;
19127;SDS011;9696;53.686;10.094;2023-08-31T05:45:07;8.20;;;4.10;;
19127;SDS011;9696;53.686;10.094;2023-08-31T05:47:36;7.57;;;4.73;;
19127;SDS011;9696;53.686;10.094;2023-08-31T05:50:07;8.87;;;4.50;;
19127;SDS011;9696;53.686;10.094;2023-08-31T05:52:37;12.87;;;5.57;;
19127;SDS011;9696;53.686;10.094;2023-08-31T05:55:10;8.17;;;4.90;;
19127;SDS011;9696;53.686;10.094;2023-08-31T05:57:40;8.90;;;3.83;;
19127;SDS011;9696;53.686;10.094;2023-08-31T06:00:09;7.27;;;3.77;;
19127;SDS011;9696;53.686;10.094;2023-08-31T06:02:40;11.27;;;4.17;;
19127;SDS011;9696;53.686;10.094;2023-08-31T06:05:11;7.60;;;3.47;;
19127;SDS011;9696;53.686;10.094;2023-08-31T06:07:43;6.07;;;4.07;;
19127;SDS011;9696;53.686;10.094;2023-08-31T06:10:12;7.63;;;4.47;;
19127;SDS011;9696;53.686;10.094;2023-08-31T06:12:42;8.83;;;4.27;;
19127;SDS011;9696;53.686;10.094;2023-08-31T06:15:11;5.63;;;3.43;;
19127;SDS011;9696;53.686;10.094;2023-08-31T06:17:42;10.30;;;3.03;;
19127;SDS011;9696;53.686;10.094;2023-08-31T06:20:12;6.57;;;2.90;;
19127;SDS011;9696;53.686;10.094;2023-08-31T06:22:41;8.43;;;3.15;;
19127;SDS011;9696;53.686;10.094;2023-08-31T06:25:11;7.43;;;2.93;;
19127;SDS011;9696;53.686;10.094;2023-08-31T06:27:42;6.60;;;2.90;;
19127;SDS011;9696;53.686;10.094;2023-08-31T06:30:11;8.43;;;2.40;;
19127;SDS011;9696;53.686;10.094;2023-08-31T06:32:43;8.73;;;2.10;;
19127;SDS011;9696;53.686;10.094;2023-08-31T06:35:14;6.40;;;2.17;;
19127;SDS011;9696;53.686;10.094;2023-08-31T06:37:45;10.80;;;1.90;;
19127;SDS011;9696;53.686;10.094;2023-08-31T06:40:14;6.13;;;2.07;;
19127;SDS011;9696;53.686;10.094;2023-08-31T06:42:43;6.30;;;2.27;;
19127;SDS011;9696;53.686;10.094;2023-08-31T06:45:12;4.63;;;1.93;;
19127;SDS011;9696;53.686;10.094;2023-08-31T06:47:41;6.83;;;1.63;;
19127;SDS011;9696;53.686;10.094;2023-08-31T06:50:10;5.83;;;2.23;;
19127;SDS011;9696;53.686;10.094;2023-08-31T06:52:41;3.43;;;1.90;;
19127;SDS011;9696;53.686;10.094;2023-08-31T06:55:13;4.90;;;2.27;;
19127;SDS011;9696;53.686;10.094;2023-08-31T06:57:42;3.00;;;2.00;;
19127;SDS011;9696;53.686;10.094;2023-08-31T07:00:13;7.70;;;2.27;;
19127;SDS011;9696;53.686;10.094;2023-08-31T07:02:42;5.95;;;1.70;;
19127;SDS011;9696;53.686;10.094;2023-08-31T07:05:12;4.55;;;1.45;;
19127;SDS011;9696;53.686;10.094;2023-08-31T07:07:42;2.45;;;1.02;;
19127;SDS011;9696;53.686;10.094;2023-08-31T07:10:11;2.33;;;1.00;;
19127;SDS011;9696;53.686;10.094;2023-08-31T07:12:41;3.90;;;1.00;;
19127;SDS011;9696;53.686;10.094;2023-08-31T07:15:10;4.20;;;1.10;;
19127;SDS011;9696;53.686;10.094;2023-08-31T07:17:39;5.88;;;1.92;;
19127;SDS011;9696;53.686;10.094;2023-08-31T07:20:09;3.05;;;1.00;;
19127;SDS011;9696;53.686;10.094;2023-08-31T07:22:39;5.30;;;1.40;;
19127;SDS011;9696;53.686;10.094;2023-08-31T07:25:10;4.18;;;1.10;;
19127;SDS011;9696;53.686;10.094;2023-08-31T07:27:39;2.85;;;1.02;;
19127;SDS011;9696;53.686;10.094;2023-08-31T07:30:09;2.03;;;0.90;;
19127;SDS011;9696;53.686;10.094;2023-08-31T07:32:38;2.45;;;0.75;;
19127;SDS011;9696;53.686;10.094;2023-08-31T07:35:08;2.90;;;0.93;;
19127;SDS011;9696;53.686;10.094;2023-08-31T07:37:37;3.55;;;1.05;;
19127;SDS011;9696;53.686;10.094;2023-08-31T07:40:07;1.83;;;0.70;;
19127;SDS011;9696;53.686;10.094;2023-08-31T07:42:39;2.92;;;0.77;;
19127;SDS011;9696;53.686;10.094;2023-08-31T07:45:08;2.28;;;0.82;;
19127;SDS011;9696;53.686;10.094;2023-08-31T07:47:38;1.33;;;0.70;;
19127;SDS011;9696;53.686;10.094;2023-08-31T07:50:07;2.85;;;0.70;;
19127;SDS011;9696;53.686;10.094;2023-08-31T07:52:37;2.50;;;0.65;;
19127;SDS011;9696;53.686;10.094;2023-08-31T07:55:06;3.13;;;0.73;;
19127;SDS011;9696;53.686;10.094;2023-08-31T07:57:37;1.00;;;0.40;;
19127;SDS011;9696;53.686;10.094;2023-08-31T08:00:07;1.77;;;0.52;;
19127;SDS011;9696;53.686;10.094;2023-08-31T08:02:40;2.08;;;0.55;;
19127;SDS011;9696;53.686;10.094;2023-08-31T08:05:09;2.65;;;0.52;;
19127;SDS011;9696;53.686;10.094;2023-08-31T08:07:38;0.70;;;0.40;;
19127;SDS011;9696;53.686;10.094;2023-08-31T08:10:11;3.47;;;0.55;;
19127;SDS011;9696;53.686;10.094;2023-08-31T08:12:41;1.15;;;0.50;;
19127;SDS011;9696;53.686;10.094;2023-08-31T08:15:12;1.38;;;0.50;;
19127;SDS011;9696;53.686;10.094;2023-08-31T08:17:41;2.15;;;0.60;;
19127;SDS011;9696;53.686;10.094;2023-08-31T08:20:11;1.48;;;0.60;;
19127;SDS011;9696;53.686;10.094;2023-08-31T08:22:40;4.30;;;0.70;;
19127;SDS011;9696;53.686;10.094;2023-08-31T08:25:11;2.72;;;0.50;;
19127;SDS011;9696;53.686;10.094;2023-08-31T08:27:40;2.10;;;0.50;;
19127;SDS011;9696;53.686;10.094;2023-08-31T08:30:10;1.13;;;0.35;;
19127;SDS011;9696;53.686;10.094;2023-08-31T08:32:39;2.25;;;0.52;;
19127;SDS011;9696;53.686;10.094;2023-08-31T08:35:08;2.38;;;0.50;;
19127;SDS011;9696;53.686;10.094;2023-08-31T08:37:37;6.68;;;0.88;;
19127;SDS011;9696;53.686;10.094;2023-08-31T08:40:07;2.75;;;0.60;;
19127;SDS011;9696;53.686;10.094;2023-08-31T08:42:40;3.53;;;0.68;;
19127;SDS011;9696;53.686;10.094;2023-08-31T08:45:12;4.10;;;0.68;;
19127;SDS011;9696;53.686;10.094;2023-08-31T08:47:43;0.85;;;0.50;;
19127;SDS011;9696;53.686;10.094;2023-08-31T08:50:14;2.53;;;0.65;;
19127;SDS011;9696;53.686;10.094;2023-08-31T08:52:44;1.67;;;1.08;;
19127;SDS011;9696;53.686;10.094;2023-08-31T08:55:14;1.50;;;0.60;;
19127;SDS011;9696;53.686;10.094;2023-08-31T08:57:45;2.55;;;0.73;;
19127;SDS011;9696;53.686;10.094;2023-08-31T09:00:15;5.32;;;0.70;;
19127;SDS011;9696;53.686;10.094;2023-08-31T09:02:44;1.67;;;0.77;;
19127;SDS011;9696;53.686;10.094;2023-08-31T09:05:13;3.83;;;0.70;;
19127;SDS011;9696;53.686;10.094;2023-08-31T09:08:01;1.80;;;0.60;;
19127;SDS011;9696;53.686;10.094;2023-08-31T09:10:35;1.38;;;0.77;;
19127;SDS011;9696;53.686;10.094;2023-08-31T09:13:06;2.20;;;0.70;;
19127;SDS011;9696;53.686;10.094;2023-08-31T09:15:38;1.35;;;0.50;;
19127;SDS011;9696;53.686;10.094;2023-08-31T09:18:13;1.77;;;0.50;;
19127;SDS011;9696;53.686;10.094;2023-08-31T09:20:45;0.75;;;0.45;;
19127;SDS011;9696;53.686;10.094;2023-08-31T09:23:16;1.67;;;0.50;;
19127;SDS011;9696;53.686;10.094;2023-08-31T09:25:46;2.05;;;0.65;;
19127;SDS011;9696;53.686;10.094;2023-08-31T09:28:18;2.17;;;0.85;;
19127;SDS011;9696;53.686;10.094;2023-08-31T09:30:49;2.13;;;0.75;;
19127;SDS011;9696;53.686;10.094;2023-08-31T09:33:20;1.75;;;0.75;;
19127;SDS011;9696;53.686;10.094;2023-08-31T09:35:50;2.20;;;0.80;;
19127;SDS011;9696;53.686;10.094;2023-08-31T09:38:19;2.78;;;0.70;;
19127;SDS011;9696;53.686;10.094;2023-08-31T09:40:49;2.35;;;0.93;;
19127;SDS011;9696;53.686;10.094;2023-08-31T09:43:20;4.85;;;1.05;;
19127;SDS011;9696;53.686;10.094;2023-08-31T09:45:50;1.38;;;0.75;;
19127;SDS011;9696;53.686;10.094;2023-08-31T09:48:21;3.20;;;0.95;;
19127;SDS011;9696;53.686;10.094;2023-08-31T09:50:52;1.05;;;0.60;;
19127;SDS011;9696;53.686;10.094;2023-08-31T09:53:23;1.55;;;0.90;;
19127;SDS011;9696;53.686;10.094;2023-08-31T09:55:56;2.10;;;0.82;;
19127;SDS011;9696;53.686;10.094;2023-08-31T09:58:27;2.08;;;0.70;;
19127;SDS011;9696;53.686;10.094;2023-08-31T10:00:58;1.23;;;0.60;;
19127;SDS011;9696;53.686;10.094;2023-08-31T10:03:29;1.67;;;0.70;;
19127;SDS011;9696;53.686;10.094;2023-08-31T10:05:58;2.35;;;0.73;;
19127;SDS011;9696;53.686;10.094;2023-08-31T10:08:29;3.47;;;0.80;;
19127;SDS011;9696;53.686;10.094;2023-08-31T10:10:59;3.17;;;0.80;;
19127;SDS011;9696;53.686;10.094;2023-08-31T10:13:31;2.00;;;1.00;;
19127;SDS011;9696;53.686;10.094;2023-08-31T10:16:03;2.72;;;0.90;;
19127;SDS011;9696;53.686;10.094;2023-08-31T10:18:33;1.40;;;0.70;;
19127;SDS011;9696;53.686;10.094;2023-08-31T10:21:03;2.35;;;0.95;;
19127;SDS011;9696;53.686;10.094;2023-08-31T10:23:33;3.25;;;0.93;;
19127;SDS011;9696;53.686;10.094;2023-08-31T10:26:05;3.25;;;0.77;;
19127;SDS011;9696;53.686;10.094;2023-08-31T10:28:42;1.98;;;1.10;;
19127;SDS011;9696;53.686;10.094;2023-08-31T10:31:15;3.60;;;0.75;;
19127;SDS011;9696;53.686;10.094;2023-08-31T10:33:46;2.65;;;0.98;;
19127;SDS011;9696;53.686;10.094;2023-08-31T10:36:22;5.28;;;0.73;;
19127;SDS011;9696;53.686;10.094;2023-08-31T10:39:05;1.30;;;0.63;;
19127;SDS011;9696;53.686;10.094;2023-08-31T10:41:39;2.33;;;0.80;;
19127;SDS011;9696;53.686;10.094;2023-08-31T10:44:19;3.70;;;0.80;;
19127;SDS011;9696;53.686;10.094;2023-08-31T10:46:49;4.03;;;0.98;;
19127;SDS011;9696;53.686;10.094;2023-08-31T10:49:20;3.17;;;0.80;;
19127;SDS011;9696;53.686;10.094;2023-08-31T10:51:53;2.75;;;0.80;;
19127;SDS011;9696;53.686;10.094;2023-08-31T10:54:24;4.07;;;1.17;;
19127;SDS011;9696;53.686;10.094;2023-08-31T10:57:03;1.83;;;0.70;;
19127;SDS011;9696;53.686;10.094;2023-08-31T10:59:45;3.47;;;0.85;;
19127;SDS011;9696;53.686;10.094;2023-08-31T11:02:33;2.00;;;0.70;;
19127;SDS011;9696;53.686;10.094;2023-08-31T11:05:07;2.53;;;0.90;;
19127;SDS011;9696;53.686;10.094;2023-08-31T11:07:38;1.85;;;0.80;;
19127;SDS011;9696;53.686;10.094;2023-08-31T11:10:09;1.95;;;0.70;;
19127;SDS011;9696;53.686;10.094;2023-08-31T11:12:39;7.53;;;1.08;;
19127;SDS011;9696;53.686;10.094;2023-08-31T11:15:12;4.53;;;0.90;;
19127;SDS011;9696;53.686;10.094;2023-08-31T11:17:42;3.35;;;0.95;;
19127;SDS011;9696;53.686;10.094;2023-08-31T11:20:15;2.72;;;1.42;;
19127;SDS011;9696;53.686;10.094;2023-08-31T11:22:46;2.53;;;0.98;;
19127;SDS011;9696;53.686;10.094;2023-08-31T11:25:17;2.42;;;1.00;;
19127;SDS011;9696;53.686;10.094;2023-08-31T11:27:53;3.47;;;0.95;;
19127;SDS011;9696;53.686;10.094;2023-08-31T11:30:26;1.73;;;0.93;;
19127;SDS011;9696;53.686;10.094;2023-08-31T11:33:01;5.22;;;0.95;;
19127;SDS011;9696;53.686;10.094;2023-08-31T11:35:31;4.40;;;0.85;;
19127;SDS011;9696;53.686;10.094;2023-08-31T11:38:03;2.25;;;0.60;;
19127;SDS011;9696;53.686;10.094;2023-08-31T11:40:33;6.13;;;0.98;;
19127;SDS011;9696;53.686;10.094;2023-08-31T11:43:03;1.23;;;0.68;;
19127;SDS011;9696;53.686;10.094;2023-08-31T11:45:35;1.48;;;0.50;;
19127;SDS011;9696;53.686;10.094;2023-08-31T11:48:06;3.00;;;0.60;;
19127;SDS011;9696;53.686;10.094;2023-08-31T11:50:36;3.00;;;0.68;;
19127;SDS011;9696;53.686;10.094;2023-08-31T11:53:07;4.40;;;1.02;;
19127;SDS011;9696;53.686;10.094;2023-08-31T11:55:37;1.70;;;0.40;;
19127;SDS011;9696;53.686;10.094;2023-08-31T11:58:18;2.20;;;0.60;;
19127;SDS011;9696;53.686;10.094;2023-08-31T12:00:55;1.00;;;0.50;;
19127;SDS011;9696;53.686;10.094;2023-08-31T12:03:26;3.97;;;0.50;;
19127;SDS011;9696;53.686;10.094;2023-08-31T12:06:17;2.67;;;0.70;;
19127;SDS011;9696;53.686;10.094;2023-08-31T12:08:46;1.75;;;0.55;;
19127;SDS011;9696;53.686;10.094;2023-08-31T12:11:18;4.05;;;0.70;;
19127;SDS011;9696;53.686;10.094;2023-08-31T12:13:47;2.13;;;0.47;;
19127;SDS011;9696;53.686;10.094;2023-08-31T12:16:20;3.85;;;0.90;;
19127;SDS011;9696;53.686;10.094;2023-08-31T12:18:49;2.65;;;0.43;;
19127;SDS011;9696;53.686;10.094;2023-08-31T12:21:19;2.80;;;0.38;;
19127;SDS011;9696;53.686;10.094;2023-08-31T12:23:48;2.42;;;0.57;;
19127;SDS011;9696;53.686;10.094;2023-08-31T12:26:17;0.75;;;0.40;;
19127;SDS011;9696;53.686;10.094;2023-08-31T12:28:46;3.33;;;0.70;;
19127;SDS011;9696;53.686;10.094;2023-08-31T12:31:15;1.58;;;0.40;;
19127;SDS011;9696;53.686;10.094;2023-08-31T12:33:46;3.85;;;0.80;;
19127;SDS011;9696;53.686;10.094;2023-08-31T12:36:15;4.13;;;0.57;;
19127;SDS011;9696;53.686;10.094;2023-08-31T12:38:44;3.90;;;0.50;;
19127;SDS011;9696;53.686;10.094;2023-08-31T12:41:13;2.67;;;0.50;;
19127;SDS011;9696;53.686;10.094;2023-08-31T12:43:44;3.28;;;0.50;;
19127;SDS011;9696;53.686;10.094;2023-08-31T12:46:13;1.48;;;0.30;;
19127;SDS011;9696;53.686;10.094;2023-08-31T12:48:43;4.78;;;0.55;;
19127;SDS011;9696;53.686;10.094;2023-08-31T12:51:17;0.32;;;0.30;;
19127;SDS011;9696;53.686;10.094;2023-08-31T12:53:46;0.10;;;0.10;;
19127;SDS011;9696;53.686;10.094;2023-08-31T12:56:15;0.80;;;0.20;;
19127;SDS011;9696;53.686;10.094;2023-08-31T12:58:49;0.40;;;0.20;;
19127;SDS011;9696;53.686;10.094;2023-08-31T13:01:19;1.20;;;0.30;;
19127;SDS011;9696;53.686;10.094;2023-08-31T13:03:51;3.15;;;0.50;;
19127;SDS011;9696;53.686;10.094;2023-08-31T13:06:20;1.67;;;0.35;;
19127;SDS011;9696;53.686;10.094;2023-08-31T13:08:51;0.98;;;0.50;;
19127;SDS011;9696;53.686;10.094;2023-08-31T13:11:20;0.50;;;0.30;;
19127;SDS011;9696;53.686;10.094;2023-08-31T13:13:51;0.60;;;0.30;;
19127;SDS011;9696;53.686;10.094;2023-08-31T13:16:20;1.95;;;0.40;;
19127;SDS011;9696;53.686;10.094;2023-08-31T13:18:53;0.60;;;0.40;;
19127;SDS011;9696;53.686;10.094;2023-08-31T13:21:22;3.20;;;0.43;;
19127;SDS011;9696;53.686;10.094;2023-08-31T13:23:51;2.70;;;0.35;;
19127;SDS011;9696;53.686;10.094;2023-08-31T13:26:20;1.13;;;0.30;;
19127;SDS011;9696;53.686;10.094;2023-08-31T13:28:49;1.17;;;0.40;;
19127;SDS011;9696;53.686;10.094;2023-08-31T13:31:18;0.20;;;0.20;;
19127;SDS011;9696;53.686;10.094;2023-08-31T13:33:47;2.38;;;0.30;;
19127;SDS011;9696;53.686;10.094;2023-08-31T13:36:18;1.08;;;0.40;;
19127;SDS011;9696;53.686;10.094;2023-08-31T13:38:47;0.65;;;0.30;;
19127;SDS011;9696;53.686;10.094;2023-08-31T13:41:16;0.32;;;0.30;;
19127;SDS011;9696;53.686;10.094;2023-08-31T13:43:46;0.20;;;0.20;;
19127;SDS011;9696;53.686;10.094;2023-08-31T13:46:15;1.08;;;0.30;;
19127;SDS011;9696;53.686;10.094;2023-08-31T13:48:44;1.13;;;0.38;;
19127;SDS011;9696;53.686;10.094;2023-08-31T13:51:15;1.42;;;0.30;;
19127;SDS011;9696;53.686;10.094;2023-08-31T13:53:45;0.50;;;0.20;;
19127;SDS011;9696;53.686;10.094;2023-08-31T13:56:15;0.63;;;0.20;;
19127;SDS011;9696;53.686;10.094;2023-08-31T13:58:44;1.17;;;0.22;;
19127;SDS011;9696;53.686;10.094;2023-08-31T14:01:13;0.82;;;0.30;;
19127;SDS011;9696;53.686;10.094;2023-08-31T14:03:42;1.77;;;0.43;;
19127;SDS011;9696;53.686;10.094;2023-08-31T14:06:12;0.90;;;0.20;;
19127;SDS011;9696;53.686;10.094;2023-08-31T14:08:43;1.38;;;0.40;;
19127;SDS011;9696;53.686;10.094;2023-08-31T14:11:12;0.60;;;0.28;;
19127;SDS011;9696;53.686;10.094;2023-08-31T14:13:42;1.17;;;0.38;;
19127;SDS011;9696;53.686;10.094;2023-08-31T14:16:13;0.38;;;0.30;;
19127;SDS011;9696;53.686;10.094;2023-08-31T14:18:42;1.58;;;0.30;;
19127;SDS011;9696;53.686;10.094;2023-08-31T14:21:14;1.08;;;0.30;;
19127;SDS011;9696;53.686;10.094;2023-08-31T14:23:45;0.20;;;0.15;;
19127;SDS011;9696;53.686;10.094;2023-08-31T14:26:14;0.50;;;0.40;;
19127;SDS011;9696;53.686;10.094;2023-08-31T14:28:43;0.60;;;0.25;;
19127;SDS011;9696;53.686;10.094;2023-08-31T14:31:12;0.32;;;0.30;;
19127;SDS011;9696;53.686;10.094;2023-08-31T14:33:42;0.68;;;0.40;;
19127;SDS011;9696;53.686;10.094;2023-08-31T14:36:13;3.17;;;0.20;;
19127;SDS011;9696;53.686;10.094;2023-08-31T14:38:44;1.63;;;0.40;;
19127;SDS011;9696;53.686;10.094;2023-08-31T14:41:13;1.45;;;0.43;;
19127;SDS011;9696;53.686;10.094;2023-08-31T14:43:42;1.35;;;0.40;;
19127;SDS011;9696;53.686;10.094;2023-08-31T14:46:12;1.45;;;0.50;;
19127;SDS011;9696;53.686;10.094;2023-08-31T14:48:41;0.80;;;0.60;;
19127;SDS011;9696;53.686;10.094;2023-08-31T14:51:10;0.88;;;0.30;;
19127;SDS011;9696;53.686;10.094;2023-08-31T14:53:40;1.33;;;0.43;;
19127;SDS011;9696;53.686;10.094;2023-08-31T14:56:11;1.27;;;0.32;;
19127;SDS011;9696;53.686;10.094;2023-08-31T14:58:40;0.68;;;0.30;;
19127;SDS011;9696;53.686;10.094;2023-08-31T15:01:09;0.65;;;0.40;;
19127;SDS011;9696;53.686;10.094;2023-08-31T15:03:38;2.20;;;0.40;;
19127;SDS011;9696;53.686;10.094;2023-08-31T15:06:08;1.58;;;0.60;;